Time;durP1;ratioP1;P1;durP2;ratioP2;P2;SDS_P1;SDS_P2;PMS_P1;PMS_P2;Temp;Humidity;BMP_temperature;BMP_pressure;BME280_temperature;BME280_humidity;BME280_pressure;Samples;Min_cycle;Max_cycle;Signal;HPM_P1;HPM_P2
2023/10/08 00:02:22;;;;;;;1.17;0.70;;;;;;;;;;5086238;28;20055;-66
2023/10/08 00:04:50;;;;;;;6.32;1.52;;;;;;;;;;5086019;28;20048;-67
2023/10/08 00:07:21;;;;;;;5.88;0.90;;;;;;;;;;5076723;28;20135;-67
2023/10/08 00:09:48;;;;;;;1.60;0.90;;;;;;;;;;5083267;28;20044;-67
2023/10/08 00:12:16;;;;;;;2.25;1.20;;;;;;;;;;5083413;28;20123;-67
2023/10/08 00:14:49;;;;;;;5.25;1.30;;;;;;;;;;5085744;28;20231;-67
2023/10/08 00:17:17;;;;;;;4.45;0.75;;;;;;;;;;5081980;28;20055;-68
2023/10/08 00:19:44;;;;;;;5.22;1.10;;;;;;;;;;5085215;28;20133;-68
2023/10/08 00:22:12;;;;;;;6.53;0.98;;;;;;;;;;5085481;28;20091;-68
2023/10/08 00:24:41;;;;;;;4.50;1.23;;;;;;;;;;5075197;28;20130;-68
2023/10/08 00:27:08;;;;;;;4.20;1.42;;;;;;;;;;5083802;28;20048;-68
2023/10/08 00:29:39;;;;;;;5.70;1.42;;;;;;;;;;5076453;28;20039;-68
2023/10/08 00:32:11;;;;;;;7.45;1.75;;;;;;;;;;5071359;28;20048;-68
2023/10/08 00:34:42;;;;;;;9.43;1.55;;;;;;;;;;5074685;28;20051;-69
2023/10/08 00:37:10;;;;;;;5.68;1.92;;;;;;;;;;5077009;28;20115;-69
2023/10/08 00:39:39;;;;;;;4.50;1.23;;;;;;;;;;5077510;28;20047;-69
2023/10/08 00:42:07;;;;;;;5.57;1.13;;;;;;;;;;5070138;28;20067;-69
2023/10/08 00:44:41;;;;;;;4.53;1.13;;;;;;;;;;5078274;28;20043;-69
2023/10/08 00:47:10;;;;;;;3.83;1.35;;;;;;;;;;5074265;28;20048;-69
2023/10/08 00:57:21;;;;;;;2.15;1.23;;;;;;;;;;5086223;28;20040;-69
2023/10/08 00:59:55;;;;;;;4.43;1.98;;;;;;;;;;5074833;28;20098;-69
2023/10/08 01:02:28;;;;;;;6.65;1.45;;;;;;;;;;5069070;28;20087;-69
2023/10/08 01:04:55;;;;;;;4.43;1.33;;;;;;;;;;5077805;28;20527;-69
2023/10/08 01:07:23;;;;;;;7.05;1.25;;;;;;;;;;5081270;28;20044;-70
2023/10/08 01:09:51;;;;;;;4.97;1.77;;;;;;;;;;5078934;28;20076;-70
2023/10/08 01:12:27;;;;;;;6.13;1.88;;;;;;;;;;5080914;28;20048;-70
2023/10/08 01:14:54;;;;;;;8.40;2.05;;;;;;;;;;5080281;28;20047;-70
2023/10/08 01:17:25;;;;;;;8.23;2.00;;;;;;;;;;5086435;28;20048;-70
2023/10/08 01:19:56;;;;;;;5.65;1.73;;;;;;;;;;5078756;28;20071;-69
2023/10/08 01:22:25;;;;;;;8.48;1.60;;;;;;;;;;5082737;28;20393;-70
2023/10/08 01:24:51;;;;;;;4.63;1.73;;;;;;;;;;5085824;28;20117;-70
2023/10/08 01:27:24;;;;;;;7.57;2.40;;;;;;;;;;5085815;28;20075;-70
2023/10/08 01:29:51;;;;;;;5.85;1.90;;;;;;;;;;5086585;28;20044;-70
2023/10/08 01:32:20;;;;;;;6.03;2.45;;;;;;;;;;5083685;28;20095;-70
2023/10/08 01:34:46;;;;;;;6.50;2.65;;;;;;;;;;5083640;28;20488;-69
2023/10/08 01:37:14;;;;;;;9.18;2.28;;;;;;;;;;5079655;28;20048;-69
2023/10/08 01:39:42;;;;;;;7.80;2.55;;;;;;;;;;5080406;28;20430;-69
2023/10/08 01:42:17;;;;;;;11.05;2.88;;;;;;;;;;5074128;28;20503;-69
2023/10/08 01:44:46;;;;;;;12.65;2.55;;;;;;;;;;5080970;28;20068;-69
2023/10/08 01:47:14;;;;;;;8.30;3.30;;;;;;;;;;5079569;28;20044;-69
2023/10/08 01:49:42;;;;;;;11.38;2.60;;;;;;;;;;5076524;28;20106;-69
2023/10/08 01:52:17;;;;;;;7.63;2.75;;;;;;;;;;5066732;28;20469;-69
2023/10/08 01:54:44;;;;;;;10.65;3.47;;;;;;;;;;5074161;28;20520;-69
2023/10/08 01:57:12;;;;;;;7.28;2.53;;;;;;;;;;5086462;28;20567;-69
2023/10/08 01:59:38;;;;;;;10.02;3.15;;;;;;;;;;5075561;28;20044;-70
2023/10/08 02:02:06;;;;;;;7.88;2.50;;;;;;;;;;5081314;28;20164;-70
2023/10/08 02:04:35;;;;;;;9.95;2.70;;;;;;;;;;5081399;28;20479;-70
2023/10/08 02:07:03;;;;;;;8.93;3.50;;;;;;;;;;5085839;28;20056;-70
2023/10/08 02:09:30;;;;;;;6.78;2.80;;;;;;;;;;5080471;28;20113;-70
2023/10/08 02:11:56;;;;;;;13.88;3.00;;;;;;;;;;5083905;28;20098;-70
2023/10/08 02:14:23;;;;;;;7.95;2.85;;;;;;;;;;5082587;28;20045;-69
2023/10/08 02:16:54;;;;;;;13.32;3.53;;;;;;;;;;5080503;28;20055;-69
2023/10/08 02:19:27;;;;;;;7.28;2.40;;;;;;;;;;5085188;28;20051;-70
2023/10/08 02:21:55;;;;;;;10.68;3.10;;;;;;;;;;5074560;28;20094;-69
2023/10/08 02:24:24;;;;;;;9.98;3.17;;;;;;;;;;5083666;28;20063;-70
2023/10/08 02:26:54;;;;;;;14.00;3.85;;;;;;;;;;5081794;28;20132;-69
2023/10/08 02:29:29;;;;;;;12.05;3.05;;;;;;;;;;5080090;28;20060;-70
2023/10/08 02:31:56;;;;;;;9.60;3.33;;;;;;;;;;5078077;28;20060;-70
2023/10/08 02:34:23;;;;;;;11.20;3.55;;;;;;;;;;5079900;28;20039;-70
2023/10/08 02:36:50;;;;;;;10.43;4.57;;;;;;;;;;5075693;28;20412;-70
2023/10/08 02:39:21;;;;;;;9.65;3.53;;;;;;;;;;5076450;28;20048;-70
2023/10/08 02:41:49;;;;;;;7.63;3.10;;;;;;;;;;5078064;28;20044;-70
2023/10/08 02:44:16;;;;;;;7.63;3.13;;;;;;;;;;5087758;28;20075;-71
2023/10/08 02:46:47;;;;;;;9.75;3.55;;;;;;;;;;5082394;28;20043;-71
2023/10/08 02:49:22;;;;;;;6.10;2.97;;;;;;;;;;5088485;28;20071;-71
2023/10/08 02:51:51;;;;;;;6.25;2.58;;;;;;;;;;5077241;28;20502;-71
2023/10/08 02:54:18;;;;;;;7.68;2.95;;;;;;;;;;5087176;28;20044;-71
2023/10/08 02:56:45;;;;;;;13.40;3.92;;;;;;;;;;5086008;28;20063;-72
2023/10/08 02:59:12;;;;;;;11.13;2.78;;;;;;;;;;5082048;28;20044;-71
2023/10/08 03:01:42;;;;;;;13.77;4.40;;;;;;;;;;5088845;28;20048;-71
2023/10/08 03:04:18;;;;;;;10.10;3.58;;;;;;;;;;5079461;28;20058;-71
2023/10/08 03:06:54;;;;;;;9.95;2.65;;;;;;;;;;5085035;28;20048;-71
2023/10/08 03:09:23;;;;;;;16.38;4.43;;;;;;;;;;5074736;28;20128;-71
2023/10/08 03:11:50;;;;;;;11.43;3.20;;;;;;;;;;5078323;28;20052;-71
2023/10/08 03:14:26;;;;;;;10.65;3.08;;;;;;;;;;5069818;28;20568;-71
2023/10/08 03:17:07;;;;;;;13.10;3.78;;;;;;;;;;5082706;28;20439;-71
2023/10/08 03:19:35;;;;;;;10.02;3.70;;;;;;;;;;5088033;28;20044;-71
2023/10/08 03:22:04;;;;;;;12.30;3.50;;;;;;;;;;5080122;28;20131;-71
2023/10/08 03:24:37;;;;;;;8.20;2.60;;;;;;;;;;5079698;28;20082;-71
2023/10/08 03:27:07;;;;;;;10.80;3.83;;;;;;;;;;5083133;28;20044;-71
2023/10/08 03:29:40;;;;;;;15.20;3.33;;;;;;;;;;5071646;28;20074;-71
2023/10/08 03:32:13;;;;;;;17.85;3.72;;;;;;;;;;5079016;28;20048;-70
2023/10/08 03:34:43;;;;;;;10.88;3.63;;;;;;;;;;5082456;28;20365;-71
2023/10/08 03:37:10;;;;;;;12.13;3.58;;;;;;;;;;5088912;28;20135;-71
2023/10/08 03:42:41;;;;;;;14.00;3.33;;;;;;;;;;5005214;28;20057;-71
2023/10/08 03:45:12;;;;;;;10.40;3.22;;;;;;;;;;5064885;28;20047;-71
2023/10/08 03:47:38;;;;;;;15.68;4.60;;;;;;;;;;5081010;28;20051;-71
2023/10/08 03:50:06;;;;;;;12.77;3.95;;;;;;;;;;5085567;28;20122;-71
2023/10/08 03:52:36;;;;;;;15.23;3.47;;;;;;;;;;5081426;28;20135;-72
2023/10/08 03:55:20;;;;;;;20.07;4.27;;;;;;;;;;5078575;28;20123;-71
2023/10/08 03:57:56;;;;;;;11.35;3.65;;;;;;;;;;5074159;28;20382;-71
2023/10/08 04:00:31;;;;;;;17.73;4.25;;;;;;;;;;5082054;28;20139;-71
2023/10/08 04:03:01;;;;;;;9.52;3.80;;;;;;;;;;5075387;28;20682;-71
2023/10/08 04:05:32;;;;;;;12.05;4.07;;;;;;;;;;5080363;28;20048;-71
2023/10/08 04:13:08;;;;;;;16.00;5.05;;;;;;;;;;5078242;28;20443;-71
2023/10/08 04:15:40;;;;;;;15.43;4.67;;;;;;;;;;5081557;28;20048;-70
2023/10/08 04:18:11;;;;;;;10.73;3.83;;;;;;;;;;5072047;28;20278;-71
2023/10/08 04:23:20;;;;;;;15.77;4.18;;;;;;;;;;5082482;28;20040;-71
2023/10/08 04:25:54;;;;;;;18.50;4.07;;;;;;;;;;5085374;28;20079;-71
2023/10/08 04:28:21;;;;;;;15.88;5.30;;;;;;;;;;5084236;28;20167;-72
2023/10/08 04:30:47;;;;;;;18.40;4.45;;;;;;;;;;5074973;28;20098;-71
2023/10/08 04:33:14;;;;;;;13.57;4.03;;;;;;;;;;5084067;28;20129;-71
2023/10/08 04:35:48;;;;;;;13.75;4.95;;;;;;;;;;5076997;28;20043;-71
2023/10/08 04:38:18;;;;;;;17.42;4.95;;;;;;;;;;5083982;28;20699;-71
2023/10/08 04:40:48;;;;;;;22.05;5.45;;;;;;;;;;5070947;28;20086;-71
2023/10/08 04:43:15;;;;;;;9.82;4.30;;;;;;;;;;5083082;28;20036;-71
2023/10/08 04:45:43;;;;;;;22.83;4.88;;;;;;;;;;5085125;28;20071;-71
2023/10/08 04:48:09;;;;;;;14.27;4.80;;;;;;;;;;5077619;28;20484;-71
2023/10/08 04:50:37;;;;;;;15.55;4.30;;;;;;;;;;5084890;28;20070;-72
2023/10/08 04:53:08;;;;;;;23.00;5.72;;;;;;;;;;5075293;28;20528;-72
2023/10/08 04:55:35;;;;;;;20.35;5.10;;;;;;;;;;5082666;28;20109;-72
2023/10/08 04:58:12;;;;;;;24.98;5.15;;;;;;;;;;5078653;28;20056;-72
2023/10/08 05:00:53;;;;;;;26.17;5.00;;;;;;;;;;5086040;28;20123;-72
2023/10/08 05:03:22;;;;;;;18.85;4.55;;;;;;;;;;5075156;28;20056;-71
2023/10/08 05:06:08;;;;;;;19.92;5.40;;;;;;;;;;5076956;28;20434;-72
2023/10/08 05:11:25;;;;;;;18.98;5.75;;;;;;;;;;5061824;28;20040;-72
2023/10/08 05:14:16;;;;;;;18.80;4.88;;;;;;;;;;5083547;28;20044;-72
2023/10/08 05:17:00;;;;;;;20.75;5.72;;;;;;;;;;5071914;28;20419;-72
2023/10/08 05:22:43;;;;;;;23.58;6.60;;;;;;;;;;5076664;28;20058;-71
2023/10/08 05:30:38;;;;;;;25.35;7.20;;;;;;;;;;5075312;28;20391;-72
2023/10/08 05:33:24;;;;;;;18.25;5.82;;;;;;;;;;5078047;28;20090;-72
2023/10/08 05:36:02;;;;;;;13.52;5.90;;;;;;;;;;5082958;28;20135;-71
2023/10/08 06:05:20;;;;;;;12.02;4.40;;;;;;;;;;5077340;28;20049;-72
2023/10/08 06:07:56;;;;;;;20.80;5.75;;;;;;;;;;5068255;28;20049;-72
2023/10/08 06:13:06;;;;;;;26.13;5.72;;;;;;;;;;5069870;28;20056;-72
2023/10/08 06:15:48;;;;;;;18.42;5.05;;;;;;;;;;5078311;28;20568;-73
2023/10/08 06:18:16;;;;;;;29.02;9.13;;;;;;;;;;5068814;28;20048;-72
2023/10/08 06:20:45;;;;;;;22.65;8.90;;;;;;;;;;5081226;28;20102;-72
2023/10/08 06:23:13;;;;;;;13.13;5.32;;;;;;;;;;5080220;28;20072;-72
2023/10/08 06:25:46;;;;;;;15.93;4.55;;;;;;;;;;5071083;28;20049;-72
2023/10/08 06:28:19;;;;;;;19.33;5.75;;;;;;;;;;5069002;28;20080;-72
2023/10/08 06:30:46;;;;;;;9.25;3.80;;;;;;;;;;5082943;28;20044;-72
2023/10/08 06:33:13;;;;;;;22.65;4.55;;;;;;;;;;5077928;28;20044;-72
2023/10/08 06:36:01;;;;;;;13.77;5.43;;;;;;;;;;5071477;28;20044;-72
2023/10/08 06:38:32;;;;;;;11.45;4.45;;;;;;;;;;5071619;28;20094;-72
2023/10/08 06:43:49;;;;;;;26.48;4.55;;;;;;;;;;5083543;28;20044;-72
2023/10/08 06:46:18;;;;;;;25.38;4.25;;;;;;;;;;5074195;28;20044;-72
2023/10/08 06:48:46;;;;;;;20.00;4.63;;;;;;;;;;5068306;28;20047;-72
2023/10/08 06:51:12;;;;;;;18.98;4.90;;;;;;;;;;5074399;28;20044;-72
2023/10/08 06:53:40;;;;;;;23.80;4.50;;;;;;;;;;5087592;28;20071;-72
2023/10/08 06:56:09;;;;;;;14.25;4.85;;;;;;;;;;5080402;28;20051;-72
2023/10/08 06:58:36;;;;;;;17.33;4.32;;;;;;;;;;5071304;28;20044;-73
2023/10/08 07:01:04;;;;;;;12.93;4.88;;;;;;;;;;5081845;28;20044;-72
2023/10/08 07:03:33;;;;;;;16.60;4.85;;;;;;;;;;5083014;28;20052;-72
2023/10/08 07:06:16;;;;;;;11.02;4.85;;;;;;;;;;5082819;28;20159;-73
2023/10/08 07:08:46;;;;;;;14.45;5.20;;;;;;;;;;5078569;28;20048;-73
2023/10/08 07:11:13;;;;;;;10.73;3.80;;;;;;;;;;5087407;28;20051;-73
2023/10/08 07:13:42;;;;;;;20.63;5.13;;;;;;;;;;5076130;28;20523;-73
2023/10/08 07:16:11;;;;;;;13.07;5.40;;;;;;;;;;5085521;28;20058;-75
2023/10/08 07:18:38;;;;;;;13.00;5.07;;;;;;;;;;5078122;28;20054;-73
2023/10/08 07:21:12;;;;;;;12.90;4.25;;;;;;;;;;5084556;28;20536;-73
2023/10/08 07:23:59;;;;;;;15.93;3.90;;;;;;;;;;5072678;28;20935;-73
2023/10/08 07:26:35;;;;;;;13.40;4.15;;;;;;;;;;5085147;28;20047;-73
2023/10/08 07:29:09;;;;;;;14.70;4.15;;;;;;;;;;5089174;28;20050;-73
2023/10/08 07:31:37;;;;;;;11.23;3.25;;;;;;;;;;5076323;28;20048;-73
2023/10/08 07:34:15;;;;;;;15.40;3.90;;;;;;;;;;5085585;28;20060;-74
2023/10/08 07:36:43;;;;;;;15.65;3.47;;;;;;;;;;5087093;28;20055;-73
2023/10/08 07:39:22;;;;;;;8.82;2.40;;;;;;;;;;5083238;28;20079;-73
2023/10/08 07:41:49;;;;;;;4.72;2.50;;;;;;;;;;5086347;28;20488;-73
2023/10/08 07:44:16;;;;;;;6.93;2.45;;;;;;;;;;5075909;28;20110;-75
2023/10/08 07:46:44;;;;;;;11.45;2.67;;;;;;;;;;5090148;28;20101;-74
2023/10/08 07:49:14;;;;;;;10.70;2.83;;;;;;;;;;5088120;28;20048;-73
2023/10/08 07:51:41;;;;;;;10.20;2.53;;;;;;;;;;5078073;28;20048;-73
2023/10/08 07:54:11;;;;;;;7.00;2.20;;;;;;;;;;5078687;28;20126;-72
2023/10/08 07:56:38;;;;;;;6.88;2.45;;;;;;;;;;5080914;28;20040;-73
2023/10/08 07:59:08;;;;;;;4.15;2.40;;;;;;;;;;5074346;28;20056;-72
2023/10/08 08:01:34;;;;;;;9.60;2.13;;;;;;;;;;5067006;28;20630;-74
2023/10/08 08:04:01;;;;;;;10.63;2.45;;;;;;;;;;5074401;28;20055;-72
2023/10/08 08:06:27;;;;;;;9.00;2.42;;;;;;;;;;5084845;28;20044;-71
2023/10/08 08:08:57;;;;;;;3.47;2.13;;;;;;;;;;5085910;28;20649;-74
2023/10/08 08:11:26;;;;;;;11.00;2.53;;;;;;;;;;5087013;28;20196;-72
2023/10/08 08:13:52;;;;;;;9.38;2.03;;;;;;;;;;5077942;28;20052;-73
2023/10/08 08:16:20;;;;;;;8.15;2.10;;;;;;;;;;5079436;28;20045;-73
2023/10/08 08:18:59;;;;;;;7.25;1.80;;;;;;;;;;5084535;28;20054;-73
2023/10/08 08:21:26;;;;;;;9.77;2.28;;;;;;;;;;5086377;28;20115;-72
2023/10/08 08:23:52;;;;;;;10.98;3.17;;;;;;;;;;5079586;28;20036;-73
2023/10/08 08:26:26;;;;;;;11.35;2.58;;;;;;;;;;5075603;28;20041;-72
2023/10/08 08:28:54;;;;;;;9.55;2.38;;;;;;;;;;5086100;28;20044;-73
2023/10/08 08:31:20;;;;;;;10.02;1.70;;;;;;;;;;5084530;28;20040;-76
2023/10/08 08:33:53;;;;;;;22.05;3.72;;;;;;;;;;5069089;28;20504;-72
2023/10/08 08:36:21;;;;;;;11.93;1.88;;;;;;;;;;5073087;28;20094;-72
2023/10/08 08:38:48;;;;;;;8.65;2.78;;;;;;;;;;5070177;28;20119;-72
2023/10/08 08:41:18;;;;;;;13.98;4.03;;;;;;;;;;5076305;28;20086;-72
2023/10/08 08:43:47;;;;;;;4.15;1.23;;;;;;;;;;5077722;28;20049;-72
2023/10/08 08:46:14;;;;;;;2.45;1.50;;;;;;;;;;5076839;28;20754;-72
2023/10/08 08:48:42;;;;;;;6.55;1.60;;;;;;;;;;5084827;28;20051;-72
2023/10/08 08:51:12;;;;;;;4.60;1.70;;;;;;;;;;5085000;28;20097;-74
2023/10/08 08:53:38;;;;;;;3.10;0.95;;;;;;;;;;5082554;28;20045;-71
2023/10/08 08:56:06;;;;;;;5.35;0.85;;;;;;;;;;5070192;28;20053;-71
2023/10/08 08:58:33;;;;;;;4.18;1.10;;;;;;;;;;5076544;28;20135;-71
2023/10/08 09:01:00;;;;;;;1.85;1.10;;;;;;;;;;5085238;28;20083;-71
2023/10/08 09:03:32;;;;;;;2.75;1.05;;;;;;;;;;5077725;28;20754;-72
2023/10/08 09:05:59;;;;;;;3.03;0.75;;;;;;;;;;5077523;28;20051;-72
2023/10/08 09:08:33;;;;;;;8.98;1.30;;;;;;;;;;5071910;28;20047;-72
2023/10/08 09:11:04;;;;;;;11.32;2.05;;;;;;;;;;5083151;28;20647;-73
2023/10/08 09:13:31;;;;;;;7.80;1.45;;;;;;;;;;5074711;28;20071;-72
2023/10/08 09:16:03;;;;;;;3.63;1.00;;;;;;;;;;5084258;28;20123;-73
2023/10/08 09:18:32;;;;;;;1.38;0.60;;;;;;;;;;5080473;28;20482;-72
2023/10/08 09:21:10;;;;;;;9.68;1.30;;;;;;;;;;5079686;28;20392;-72
2023/10/08 09:23:43;;;;;;;8.13;2.63;;;;;;;;;;5082957;28;20729;-72
2023/10/08 09:26:13;;;;;;;9.45;1.17;;;;;;;;;;5082180;28;20055;-73
2023/10/08 09:28:46;;;;;;;2.45;0.93;;;;;;;;;;5081211;28;20053;-75
2023/10/08 09:31:13;;;;;;;5.40;1.48;;;;;;;;;;5073284;28;20067;-73
2023/10/08 09:33:40;;;;;;;4.28;0.77;;;;;;;;;;5087039;28;20734;-75
2023/10/08 09:36:10;;;;;;;6.72;1.55;;;;;;;;;;5077248;28;20079;-73
2023/10/08 09:38:37;;;;;;;32.45;6.03;;;;;;;;;;5081148;28;20097;-71
2023/10/08 09:41:03;;;;;;;10.25;1.98;;;;;;;;;;5079383;28;20408;-72
2023/10/08 09:43:32;;;;;;;4.53;0.90;;;;;;;;;;5084567;28;20601;-71
2023/10/08 09:46:07;;;;;;;2.58;0.70;;;;;;;;;;5078547;28;20540;-71
2023/10/08 09:48:37;;;;;;;4.03;0.80;;;;;;;;;;5078788;28;20131;-73
2023/10/08 09:51:06;;;;;;;5.43;1.33;;;;;;;;;;5085876;28;20696;-72
2023/10/08 09:53:52;;;;;;;2.78;0.50;;;;;;;;;;5082674;28;20132;-72
2023/10/08 09:56:19;;;;;;;1.77;0.65;;;;;;;;;;5086413;28;20139;-72
2023/10/08 09:58:49;;;;;;;2.58;0.85;;;;;;;;;;5075359;28;20052;-72
2023/10/08 10:01:17;;;;;;;2.70;1.05;;;;;;;;;;5079653;28;20048;-72
2023/10/08 10:03:44;;;;;;;4.85;1.00;;;;;;;;;;5081020;28;20044;-73
2023/10/08 10:06:11;;;;;;;4.18;1.52;;;;;;;;;;5080013;28;20127;-71
2023/10/08 10:08:38;;;;;;;4.10;1.30;;;;;;;;;;5086215;28;20054;-74
2023/10/08 10:11:06;;;;;;;3.70;0.63;;;;;;;;;;5085740;28;20062;-73
2023/10/08 10:13:38;;;;;;;1.42;0.63;;;;;;;;;;5078113;28;20094;-73
2023/10/08 10:16:09;;;;;;;4.38;0.90;;;;;;;;;;5075597;28;20048;-73
2023/10/08 10:18:36;;;;;;;4.88;1.40;;;;;;;;;;5078723;28;20048;-73
2023/10/08 10:21:12;;;;;;;3.33;1.05;;;;;;;;;;5083101;28;20048;-74
2023/10/08 10:23:40;;;;;;;3.70;0.60;;;;;;;;;;5080570;28;20291;-74
2023/10/08 10:26:26;;;;;;;4.78;0.77;;;;;;;;;;5089569;28;20040;-73
2023/10/08 10:29:11;;;;;;;2.67;0.50;;;;;;;;;;5088294;28;20066;-72
2023/10/08 10:31:38;;;;;;;0.80;0.45;;;;;;;;;;5076407;28;20047;-72
2023/10/08 10:34:08;;;;;;;5.93;0.80;;;;;;;;;;5088653;28;20048;-72
2023/10/08 10:36:39;;;;;;;4.53;0.93;;;;;;;;;;5082974;28;20458;-71
2023/10/08 10:39:30;;;;;;;3.67;0.90;;;;;;;;;;5077250;28;20049;-73
2023/10/08 10:42:06;;;;;;;3.65;0.45;;;;;;;;;;5078192;28;20138;-72
2023/10/08 10:44:36;;;;;;;2.72;0.47;;;;;;;;;;5084964;28;20123;-72
2023/10/08 10:49:52;;;;;;;3.30;0.68;;;;;;;;;;5077652;28;20093;-73
2023/10/08 10:52:31;;;;;;;3.22;0.70;;;;;;;;;;5075488;28;20098;-74
2023/10/08 10:57:56;;;;;;;3.72;0.52;;;;;;;;;;5086862;28;20079;-73
2023/10/08 11:03:02;;;;;;;3.42;0.50;;;;;;;;;;5077326;28;20037;-72
2023/10/08 11:05:37;;;;;;;3.47;0.60;;;;;;;;;;5087808;28;20048;-73
2023/10/08 11:08:06;;;;;;;3.60;1.48;;;;;;;;;;5084957;28;20612;-74
2023/10/08 11:10:38;;;;;;;2.45;0.40;;;;;;;;;;5085030;28;20036;-70
2023/10/08 11:13:14;;;;;;;1.63;0.47;;;;;;;;;;5087088;28;20059;-73
2023/10/08 11:15:41;;;;;;;0.80;0.40;;;;;;;;;;5086836;28;20048;-73
2023/10/08 11:18:11;;;;;;;3.92;0.50;;;;;;;;;;5088513;28;20480;-72
2023/10/08 11:20:44;;;;;;;2.92;0.50;;;;;;;;;;5083653;28;20108;-73
2023/10/08 11:23:21;;;;;;;1.00;0.40;;;;;;;;;;5086199;28;20056;-74
2023/10/08 11:26:02;;;;;;;4.20;0.70;;;;;;;;;;5084162;28;20117;-72
2023/10/08 11:28:29;;;;;;;5.65;0.57;;;;;;;;;;5080266;28;20066;-73
2023/10/08 11:30:59;;;;;;;4.32;0.60;;;;;;;;;;5084175;28;20385;-73
2023/10/08 11:33:27;;;;;;;2.67;0.82;;;;;;;;;;5075089;28;20045;-72
2023/10/08 11:36:00;;;;;;;2.20;0.88;;;;;;;;;;5077859;28;20045;-72
2023/10/08 11:38:27;;;;;;;1.42;0.40;;;;;;;;;;5087701;28;20059;-72
2023/10/08 11:40:56;;;;;;;3.72;0.52;;;;;;;;;;5087187;28;20110;-72
2023/10/08 11:43:23;;;;;;;1.88;0.65;;;;;;;;;;5083577;28;20088;-72
2023/10/08 11:45:50;;;;;;;4.15;0.90;;;;;;;;;;5087743;28;20125;-71
2023/10/08 11:48:21;;;;;;;2.17;0.82;;;;;;;;;;5088151;28;20131;-72
2023/10/08 11:50:50;;;;;;;2.45;0.88;;;;;;;;;;5087117;28;20500;-69
2023/10/08 11:53:19;;;;;;;2.10;0.52;;;;;;;;;;5083821;28;20040;-70
2023/10/08 11:55:47;;;;;;;2.40;0.73;;;;;;;;;;5082875;28;20138;-70
2023/10/08 11:58:17;;;;;;;2.85;0.68;;;;;;;;;;5075855;28;20686;-72
2023/10/08 12:00:44;;;;;;;3.03;0.60;;;;;;;;;;5086700;28;20044;-68
2023/10/08 12:03:13;;;;;;;1.70;0.35;;;;;;;;;;5078845;28;20114;-68
2023/10/08 12:05:47;;;;;;;3.70;0.70;;;;;;;;;;5078728;28;20063;-66
2023/10/08 12:08:17;;;;;;;1.50;0.60;;;;;;;;;;5077705;28;20617;-68
2023/10/08 12:10:45;;;;;;;2.30;0.60;;;;;;;;;;5071844;28;20424;-65
2023/10/08 12:13:12;;;;;;;1.85;0.45;;;;;;;;;;5076268;28;20148;-65
2023/10/08 12:15:41;;;;;;;3.50;0.90;;;;;;;;;;5076059;28;20071;-66
2023/10/08 12:18:26;;;;;;;5.95;1.05;;;;;;;;;;5084829;28;20064;-66
2023/10/08 12:20:56;;;;;;;4.22;0.52;;;;;;;;;;5075218;28;20044;-70
2023/10/08 12:23:25;;;;;;;4.07;0.90;;;;;;;;;;5077015;28;20040;-64
2023/10/08 12:25:59;;;;;;;3.47;1.13;;;;;;;;;;5085003;28;20070;-67
2023/10/08 12:28:29;;;;;;;1.73;0.50;;;;;;;;;;5079131;28;20124;-66
2023/10/08 12:30:56;;;;;;;1.25;0.35;;;;;;;;;;5074207;28;20071;-67
2023/10/08 12:33:24;;;;;;;4.15;0.63;;;;;;;;;;5080500;28;20037;-67
2023/10/08 12:35:55;;;;;;;1.02;0.30;;;;;;;;;;5078198;28;20055;-66
2023/10/08 12:38:22;;;;;;;2.13;0.80;;;;;;;;;;5079029;28;20045;-68
2023/10/08 12:40:55;;;;;;;1.88;0.50;;;;;;;;;;5074517;28;20044;-71
2023/10/08 12:43:22;;;;;;;3.00;0.50;;;;;;;;;;5074021;28;20120;-69
2023/10/08 12:45:52;;;;;;;2.90;0.50;;;;;;;;;;5075942;28;20665;-69
2023/10/08 12:48:24;;;;;;;2.30;0.43;;;;;;;;;;5073383;28;20044;-71
2023/10/08 12:50:56;;;;;;;1.65;0.63;;;;;;;;;;5069366;28;20052;-69
2023/10/08 12:53:26;;;;;;;2.20;0.57;;;;;;;;;;5076765;28;20074;-65
2023/10/08 12:55:54;;;;;;;2.47;0.55;;;;;;;;;;5081596;28;20142;-70
2023/10/08 12:58:25;;;;;;;2.47;0.50;;;;;;;;;;5077430;28;20075;-70
2023/10/08 13:00:57;;;;;;;1.88;0.90;;;;;;;;;;5070645;28;20056;-66
2023/10/08 13:03:24;;;;;;;2.25;0.85;;;;;;;;;;5077730;28;20048;-72
2023/10/08 13:05:54;;;;;;;3.20;0.70;;;;;;;;;;5076646;28;20606;-67
2023/10/08 13:08:21;;;;;;;3.50;0.98;;;;;;;;;;5080758;28;20047;-68
2023/10/08 13:10:47;;;;;;;3.33;0.40;;;;;;;;;;5076671;28;20127;-71
2023/10/08 13:13:14;;;;;;;3.33;0.70;;;;;;;;;;5083200;28;20068;-71
2023/10/08 13:15:43;;;;;;;4.38;0.80;;;;;;;;;;5077997;28;20070;-65
2023/10/08 13:18:10;;;;;;;2.38;0.88;;;;;;;;;;5068640;28;20723;-70
2023/10/08 13:20:40;;;;;;;2.72;0.93;;;;;;;;;;5078380;28;20123;-67
2023/10/08 13:23:07;;;;;;;6.68;1.45;;;;;;;;;;5080928;28;20125;-64
2023/10/08 13:25:39;;;;;;;2.53;0.90;;;;;;;;;;5084496;28;20078;-76
2023/10/08 13:28:07;;;;;;;3.95;0.98;;;;;;;;;;5081821;28;20113;-71
2023/10/08 13:30:33;;;;;;;2.30;1.00;;;;;;;;;;5085198;28;20131;-76
2023/10/08 13:33:00;;;;;;;5.22;1.05;;;;;;;;;;5082502;28;20040;-68
2023/10/08 13:35:26;;;;;;;3.40;0.70;;;;;;;;;;5081723;28;20050;-74
2023/10/08 13:37:53;;;;;;;1.80;0.52;;;;;;;;;;5080560;28;20105;-75
2023/10/08 13:40:19;;;;;;;5.60;1.25;;;;;;;;;;5079826;28;20145;-74
2023/10/08 13:42:46;;;;;;;2.65;0.65;;;;;;;;;;5081658;28;20560;-76
2023/10/08 13:45:26;;;;;;;3.63;0.70;;;;;;;;;;5079437;28;20131;-70
2023/10/08 13:47:52;;;;;;;2.50;0.73;;;;;;;;;;5080918;28;20052;-73
2023/10/08 13:50:21;;;;;;;4.35;0.85;;;;;;;;;;5080302;28;20053;-68
2023/10/08 13:52:48;;;;;;;2.15;1.33;;;;;;;;;;5080793;28;20048;-69
2023/10/08 13:55:16;;;;;;;2.42;1.05;;;;;;;;;;5080725;28;20044;-73
2023/10/08 13:57:44;;;;;;;1.95;0.93;;;;;;;;;;5083532;28;20532;-73
2023/10/08 14:00:15;;;;;;;8.45;1.42;;;;;;;;;;5084068;28;20090;-72
2023/10/08 14:02:42;;;;;;;;;;;;;;;;;;5084070;28;20079;-72
2023/10/08 14:05:09;;;;;;;2.55;0.75;;;;;;;;;;5079943;28;20019;-72
2023/10/08 14:07:35;;;;;;;2.50;0.70;;;;;;;;;;5076802;28;20044;-73
2023/10/08 14:10:08;;;;;;;3.17;0.60;;;;;;;;;;5085994;28;20048;-72
2023/10/08 14:12:37;;;;;;;3.65;1.17;;;;;;;;;;5079530;28;20510;-70
2023/10/08 14:15:06;;;;;;;3.58;1.05;;;;;;;;;;5086822;28;20040;-67
2023/10/08 14:17:48;;;;;;;2.90;0.65;;;;;;;;;;5083932;28;20113;-68
2023/10/08 14:20:21;;;;;;;4.30;0.88;;;;;;;;;;5084766;28;20101;-68
2023/10/08 14:22:57;;;;;;;3.13;0.65;;;;;;;;;;5088659;28;20047;-66
2023/10/08 14:25:28;;;;;;;6.68;1.38;;;;;;;;;;5087123;28;20055;-68
2023/10/08 14:28:04;;;;;;;2.78;0.50;;;;;;;;;;5087545;28;20735;-72
2023/10/08 14:30:33;;;;;;;1.77;0.55;;;;;;;;;;5084988;28;20032;-74
2023/10/08 14:32:59;;;;;;;4.53;0.82;;;;;;;;;;5087524;28;20044;-68
2023/10/08 14:43:43;;;;;;;4.25;0.90;;;;;;;;;;5083954;28;20127;-70
2023/10/08 14:46:09;;;;;;;3.90;0.90;;;;;;;;;;5079518;28;20129;-70
2023/10/08 14:48:36;;;;;;;2.13;0.60;;;;;;;;;;5078630;28;20083;-71
2023/10/08 14:51:03;;;;;;;2.60;0.82;;;;;;;;;;5079852;28;20132;-72
2023/10/08 14:53:31;;;;;;;2.90;0.73;;;;;;;;;;5075886;28;20118;-72
2023/10/08 14:55:57;;;;;;;2.88;0.75;;;;;;;;;;5068479;28;20130;-68
2023/10/08 14:58:25;;;;;;;3.03;1.00;;;;;;;;;;5069633;28;20055;-68
2023/10/08 15:00:54;;;;;;;5.63;1.73;;;;;;;;;;5074073;28;20052;-69
2023/10/08 15:03:20;;;;;;;7.45;1.63;;;;;;;;;;5079187;28;20058;-71
2023/10/08 15:05:47;;;;;;;3.05;1.00;;;;;;;;;;5075315;28;20052;-71
2023/10/08 15:08:18;;;;;;;4.47;1.02;;;;;;;;;;5076496;28;20503;-68
2023/10/08 15:10:46;;;;;;;4.95;0.88;;;;;;;;;;5082566;28;20056;-73
2023/10/08 15:13:13;;;;;;;4.50;0.75;;;;;;;;;;5077780;28;20056;-74
2023/10/08 15:15:40;;;;;;;12.35;2.05;;;;;;;;;;5077172;28;20102;-78
2023/10/08 15:18:07;;;;;;;6.00;1.30;;;;;;;;;;5073922;28;20618;-73
2023/10/08 15:20:34;;;;;;;3.67;1.27;;;;;;;;;;5075183;28;20044;-72
2023/10/08 15:23:01;;;;;;;6.85;2.15;;;;;;;;;;5074377;28;20505;-73
2023/10/08 15:25:28;;;;;;;9.77;1.98;;;;;;;;;;5076373;28;20052;-72
2023/10/08 15:27:55;;;;;;;11.05;2.20;;;;;;;;;;5077783;28;20131;-72
